sensor_id;sensor_type;location;lat;lon;timestamp;P1;durP1;ratioP1;P2;durP2;ratioP2
35977;SDS011;22056;0.000;0.000;2023-04-25T00:00:49;2.45;;;0.75;;
35977;SDS011;22056;0.000;0.000;2023-04-25T00:03:17;1.65;;;0.65;;
35977;SDS011;22056;0.000;0.000;2023-04-25T00:05:44;2.35;;;0.80;;
35977;SDS011;22056;0.000;0.000;2023-04-25T00:08:10;3.42;;;1.13;;
35977;SDS011;22056;0.000;0.000;2023-04-25T00:10:36;1.90;;;0.70;;
35977;SDS011;22056;0.000;0.000;2023-04-25T00:13:03;1.83;;;0.70;;
35977;SDS011;22056;0.000;0.000;2023-04-25T00:15:29;1.10;;;0.75;;
35977;SDS011;22056;0.000;0.000;2023-04-25T00:17:56;1.52;;;0.77;;
35977;SDS011;22056;0.000;0.000;2023-04-25T00:20:22;1.58;;;0.75;;
35977;SDS011;22056;0.000;0.000;2023-04-25T00:22:49;3.25;;;0.82;;
35977;SDS011;22056;0.000;0.000;2023-04-25T00:25:17;1.75;;;0.70;;
35977;SDS011;22056;0.000;0.000;2023-04-25T00:27:43;5.22;;;1.02;;
35977;SDS011;22056;0.000;0.000;2023-04-25T00:30:10;1.25;;;0.52;;
35977;SDS011;22056;0.000;0.000;2023-04-25T00:32:36;1.25;;;0.60;;
35977;SDS011;22056;0.000;0.000;2023-04-25T00:35:02;3.38;;;0.55;;
35977;SDS011;22056;0.000;0.000;2023-04-25T00:37:28;1.55;;;0.68;;
35977;SDS011;22056;0.000;0.000;2023-04-25T00:39:55;1.67;;;0.60;;
35977;SDS011;22056;0.000;0.000;2023-04-25T00:42:22;1.77;;;0.60;;
35977;SDS011;22056;0.000;0.000;2023-04-25T00:44:48;1.13;;;0.60;;
35977;SDS011;22056;0.000;0.000;2023-04-25T00:47:14;3.03;;;0.70;;
35977;SDS011;22056;0.000;0.000;2023-04-25T00:49:41;2.20;;;0.60;;
35977;SDS011;22056;0.000;0.000;2023-04-25T00:52:07;1.75;;;0.77;;
35977;SDS011;22056;0.000;0.000;2023-04-25T00:54:33;1.80;;;0.57;;
35977;SDS011;22056;0.000;0.000;2023-04-25T00:56:59;1.15;;;0.60;;
35977;SDS011;22056;0.000;0.000;2023-04-25T00:59:26;1.88;;;0.77;;
35977;SDS011;22056;0.000;0.000;2023-04-25T01:01:53;1.60;;;0.60;;
35977;SDS011;22056;0.000;0.000;2023-04-25T01:04:19;1.10;;;0.50;;
35977;SDS011;22056;0.000;0.000;2023-04-25T01:06:46;2.22;;;0.70;;
35977;SDS011;22056;0.000;0.000;2023-04-25T01:09:12;1.23;;;0.57;;
35977;SDS011;22056;0.000;0.000;2023-04-25T01:11:38;1.58;;;0.65;;
35977;SDS011;22056;0.000;0.000;2023-04-25T01:14:05;0.82;;;0.65;;
35977;SDS011;22056;0.000;0.000;2023-04-25T01:16:32;0.70;;;0.60;;
35977;SDS011;22056;0.000;0.000;2023-04-25T01:18:58;1.30;;;0.50;;
35977;SDS011;22056;0.000;0.000;2023-04-25T01:21:25;0.70;;;0.50;;
35977;SDS011;22056;0.000;0.000;2023-04-25T01:23:53;1.52;;;0.80;;
35977;SDS011;22056;0.000;0.000;2023-04-25T01:26:20;2.42;;;0.60;;
35977;SDS011;22056;0.000;0.000;2023-04-25T01:28:47;0.93;;;0.63;;
35977;SDS011;22056;0.000;0.000;2023-04-25T01:31:13;0.93;;;0.50;;
35977;SDS011;22056;0.000;0.000;2023-04-25T01:33:40;1.25;;;0.70;;
35977;SDS011;22056;0.000;0.000;2023-04-25T01:36:06;0.57;;;0.50;;
35977;SDS011;22056;0.000;0.000;2023-04-25T01:38:32;1.05;;;0.50;;
35977;SDS011;22056;0.000;0.000;2023-04-25T01:40:58;1.38;;;0.50;;
35977;SDS011;22056;0.000;0.000;2023-04-25T01:43:24;1.10;;;0.50;;
35977;SDS011;22056;0.000;0.000;2023-04-25T01:45:51;1.05;;;0.43;;
35977;SDS011;22056;0.000;0.000;2023-04-25T01:48:17;1.65;;;0.65;;
35977;SDS011;22056;0.000;0.000;2023-04-25T01:50:44;1.33;;;0.50;;
35977;SDS011;22056;0.000;0.000;2023-04-25T01:53:10;1.42;;;0.40;;
35977;SDS011;22056;0.000;0.000;2023-04-25T01:55:38;0.80;;;0.50;;
35977;SDS011;22056;0.000;0.000;2023-04-25T01:58:04;0.90;;;0.43;;
35977;SDS011;22056;0.000;0.000;2023-04-25T02:00:35;1.58;;;0.50;;
35977;SDS011;22056;0.000;0.000;2023-04-25T02:03:04;0.52;;;0.50;;
35977;SDS011;22056;0.000;0.000;2023-04-25T02:05:36;1.10;;;0.52;;
35977;SDS011;22056;0.000;0.000;2023-04-25T02:08:04;0.68;;;0.50;;
35977;SDS011;22056;0.000;0.000;2023-04-25T02:10:30;2.05;;;0.55;;
35977;SDS011;22056;0.000;0.000;2023-04-25T02:12:57;1.08;;;0.50;;
35977;SDS011;22056;0.000;0.000;2023-04-25T02:15:23;1.50;;;0.57;;
35977;SDS011;22056;0.000;0.000;2023-04-25T02:17:49;1.23;;;0.55;;
35977;SDS011;22056;0.000;0.000;2023-04-25T02:20:18;0.65;;;0.43;;
35977;SDS011;22056;0.000;0.000;2023-04-25T02:22:45;2.25;;;0.52;;
35977;SDS011;22056;0.000;0.000;2023-04-25T02:25:11;1.45;;;0.60;;
35977;SDS011;22056;0.000;0.000;2023-04-25T02:27:37;0.73;;;0.40;;
35977;SDS011;22056;0.000;0.000;2023-04-25T02:30:04;0.98;;;0.50;;
35977;SDS011;22056;0.000;0.000;2023-04-25T02:32:31;1.13;;;0.60;;
35977;SDS011;22056;0.000;0.000;2023-04-25T02:34:59;1.33;;;0.63;;
35977;SDS011;22056;0.000;0.000;2023-04-25T02:37:29;0.90;;;0.40;;
35977;SDS011;22056;0.000;0.000;2023-04-25T02:39:55;0.45;;;0.40;;
35977;SDS011;22056;0.000;0.000;2023-04-25T02:42:21;0.40;;;0.40;;
35977;SDS011;22056;0.000;0.000;2023-04-25T02:44:47;0.50;;;0.43;;
35977;SDS011;22056;0.000;0.000;2023-04-25T02:47:13;0.70;;;0.40;;
35977;SDS011;22056;0.000;0.000;2023-04-25T02:49:40;0.80;;;0.43;;
35977;SDS011;22056;0.000;0.000;2023-04-25T02:52:06;1.05;;;0.50;;
35977;SDS011;22056;0.000;0.000;2023-04-25T02:54:32;0.95;;;0.50;;
35977;SDS011;22056;0.000;0.000;2023-04-25T02:56:58;1.13;;;0.47;;
35977;SDS011;22056;0.000;0.000;2023-04-25T02:59:25;1.75;;;0.55;;
35977;SDS011;22056;0.000;0.000;2023-04-25T03:01:51;0.57;;;0.43;;
35977;SDS011;22056;0.000;0.000;2023-04-25T03:04:17;0.47;;;0.47;;
35977;SDS011;22056;0.000;0.000;2023-04-25T03:06:44;1.20;;;0.60;;
35977;SDS011;22056;0.000;0.000;2023-04-25T03:09:10;0.65;;;0.50;;
35977;SDS011;22056;0.000;0.000;2023-04-25T03:11:38;0.80;;;0.40;;
35977;SDS011;22056;0.000;0.000;2023-04-25T03:14:04;0.73;;;0.60;;
35977;SDS011;22056;0.000;0.000;2023-04-25T03:16:30;0.77;;;0.38;;
35977;SDS011;22056;0.000;0.000;2023-04-25T03:18:56;0.45;;;0.45;;
35977;SDS011;22056;0.000;0.000;2023-04-25T03:21:22;0.68;;;0.40;;
35977;SDS011;22056;0.000;0.000;2023-04-25T03:23:49;0.55;;;0.40;;
35977;SDS011;22056;0.000;0.000;2023-04-25T03:26:15;2.00;;;0.50;;
35977;SDS011;22056;0.000;0.000;2023-04-25T03:28:41;0.77;;;0.40;;
35977;SDS011;22056;0.000;0.000;2023-04-25T03:31:07;0.70;;;0.40;;
35977;SDS011;22056;0.000;0.000;2023-04-25T03:33:33;0.82;;;0.40;;
35977;SDS011;22056;0.000;0.000;2023-04-25T03:35:59;1.13;;;0.50;;
35977;SDS011;22056;0.000;0.000;2023-04-25T03:38:25;0.40;;;0.40;;
35977;SDS011;22056;0.000;0.000;2023-04-25T03:40:52;0.70;;;0.60;;
35977;SDS011;22056;0.000;0.000;2023-04-25T03:43:18;1.55;;;0.52;;
35977;SDS011;22056;0.000;0.000;2023-04-25T03:45:44;0.98;;;0.38;;
35977;SDS011;22056;0.000;0.000;2023-04-25T03:48:11;0.55;;;0.40;;
35977;SDS011;22056;0.000;0.000;2023-04-25T03:50:37;0.88;;;0.38;;
35977;SDS011;22056;0.000;0.000;2023-04-25T03:53:03;1.23;;;0.50;;
35977;SDS011;22056;0.000;0.000;2023-04-25T03:55:29;1.85;;;0.50;;
35977;SDS011;22056;0.000;0.000;2023-04-25T03:57:57;1.17;;;0.60;;
35977;SDS011;22056;0.000;0.000;2023-04-25T04:00:23;1.40;;;0.60;;
35977;SDS011;22056;0.000;0.000;2023-04-25T04:02:49;1.00;;;0.50;;
35977;SDS011;22056;0.000;0.000;2023-04-25T04:05:15;1.42;;;0.60;;
35977;SDS011;22056;0.000;0.000;2023-04-25T04:07:41;0.75;;;0.52;;
35977;SDS011;22056;0.000;0.000;2023-04-25T04:10:10;1.27;;;0.60;;
35977;SDS011;22056;0.000;0.000;2023-04-25T04:12:37;1.17;;;0.47;;
35977;SDS011;22056;0.000;0.000;2023-04-25T04:15:05;1.23;;;0.60;;
35977;SDS011;22056;0.000;0.000;2023-04-25T04:17:32;2.25;;;0.60;;
35977;SDS011;22056;0.000;0.000;2023-04-25T04:19:59;1.63;;;0.60;;
35977;SDS011;22056;0.000;0.000;2023-04-25T04:22:25;0.60;;;0.57;;
35977;SDS011;22056;0.000;0.000;2023-04-25T04:24:52;1.13;;;0.60;;
35977;SDS011;22056;0.000;0.000;2023-04-25T04:27:19;2.50;;;0.63;;
35977;SDS011;22056;0.000;0.000;2023-04-25T04:29:46;1.33;;;0.65;;
35977;SDS011;22056;0.000;0.000;2023-04-25T04:32:13;1.00;;;0.50;;
35977;SDS011;22056;0.000;0.000;2023-04-25T04:34:39;2.03;;;0.60;;
35977;SDS011;22056;0.000;0.000;2023-04-25T04:37:06;4.57;;;0.80;;
35977;SDS011;22056;0.000;0.000;2023-04-25T04:39:33;1.23;;;0.50;;
35977;SDS011;22056;0.000;0.000;2023-04-25T04:41:59;3.47;;;0.70;;
35977;SDS011;22056;0.000;0.000;2023-04-25T04:44:27;2.00;;;0.57;;
35977;SDS011;22056;0.000;0.000;2023-04-25T04:46:53;2.22;;;0.55;;
35977;SDS011;22056;0.000;0.000;2023-04-25T04:49:20;3.42;;;0.60;;
35977;SDS011;22056;0.000;0.000;2023-04-25T04:51:46;3.08;;;0.50;;
35977;SDS011;22056;0.000;0.000;2023-04-25T04:54:14;4.40;;;0.70;;
35977;SDS011;22056;0.000;0.000;2023-04-25T04:56:40;2.28;;;0.93;;
35977;SDS011;22056;0.000;0.000;2023-04-25T04:59:07;3.17;;;0.93;;
35977;SDS011;22056;0.000;0.000;2023-04-25T05:01:33;1.98;;;0.80;;
35977;SDS011;22056;0.000;0.000;2023-04-25T05:04:00;1.25;;;0.60;;
35977;SDS011;22056;0.000;0.000;2023-04-25T05:06:28;1.10;;;0.60;;
35977;SDS011;22056;0.000;0.000;2023-04-25T05:08:55;2.00;;;0.60;;
35977;SDS011;22056;0.000;0.000;2023-04-25T05:11:21;1.90;;;0.70;;
35977;SDS011;22056;0.000;0.000;2023-04-25T05:13:48;4.13;;;0.80;;
35977;SDS011;22056;0.000;0.000;2023-04-25T05:16:14;4.32;;;1.05;;
35977;SDS011;22056;0.000;0.000;2023-04-25T05:18:40;3.53;;;1.00;;
35977;SDS011;22056;0.000;0.000;2023-04-25T05:21:06;5.53;;;0.93;;
35977;SDS011;22056;0.000;0.000;2023-04-25T05:23:32;5.93;;;0.82;;
35977;SDS011;22056;0.000;0.000;2023-04-25T05:25:59;7.80;;;1.00;;
35977;SDS011;22056;0.000;0.000;2023-04-25T05:28:25;2.95;;;1.13;;
35977;SDS011;22056;0.000;0.000;2023-04-25T05:30:51;2.03;;;0.75;;
35977;SDS011;22056;0.000;0.000;2023-04-25T05:33:17;4.38;;;1.15;;
35977;SDS011;22056;0.000;0.000;2023-04-25T05:35:43;2.50;;;1.00;;
35977;SDS011;22056;0.000;0.000;2023-04-25T05:38:10;6.30;;;1.00;;
35977;SDS011;22056;0.000;0.000;2023-04-25T05:40:36;3.88;;;1.02;;
35977;SDS011;22056;0.000;0.000;2023-04-25T05:43:02;5.22;;;0.90;;
35977;SDS011;22056;0.000;0.000;2023-04-25T05:45:28;3.22;;;1.00;;
35977;SDS011;22056;0.000;0.000;2023-04-25T05:47:54;3.13;;;0.90;;
35977;SDS011;22056;0.000;0.000;2023-04-25T05:50:20;3.55;;;0.85;;
35977;SDS011;22056;0.000;0.000;2023-04-25T05:52:47;3.78;;;1.13;;
35977;SDS011;22056;0.000;0.000;2023-04-25T05:55:13;2.83;;;1.10;;
35977;SDS011;22056;0.000;0.000;2023-04-25T05:57:39;3.97;;;1.35;;
35977;SDS011;22056;0.000;0.000;2023-04-25T06:00:07;2.80;;;1.00;;
35977;SDS011;22056;0.000;0.000;2023-04-25T06:02:34;3.10;;;1.08;;
35977;SDS011;22056;0.000;0.000;2023-04-25T06:05:00;5.57;;;1.23;;
35977;SDS011;22056;0.000;0.000;2023-04-25T06:07:28;1.70;;;0.80;;
35977;SDS011;22056;0.000;0.000;2023-04-25T06:09:58;4.57;;;0.95;;
35977;SDS011;22056;0.000;0.000;2023-04-25T06:12:25;3.38;;;1.00;;
35977;SDS011;22056;0.000;0.000;2023-04-25T06:14:51;4.25;;;0.95;;
35977;SDS011;22056;0.000;0.000;2023-04-25T06:17:17;3.75;;;1.00;;
35977;SDS011;22056;0.000;0.000;2023-04-25T06:19:44;5.55;;;1.33;;
35977;SDS011;22056;0.000;0.000;2023-04-25T06:22:10;3.67;;;1.00;;
35977;SDS011;22056;0.000;0.000;2023-04-25T06:24:36;3.67;;;0.90;;
35977;SDS011;22056;0.000;0.000;2023-04-25T06:27:02;5.68;;;1.08;;
35977;SDS011;22056;0.000;0.000;2023-04-25T06:29:28;2.97;;;1.02;;
35977;SDS011;22056;0.000;0.000;2023-04-25T06:31:54;3.70;;;0.98;;
35977;SDS011;22056;0.000;0.000;2023-04-25T06:34:20;5.65;;;0.88;;
35977;SDS011;22056;0.000;0.000;2023-04-25T06:36:47;4.20;;;1.00;;
35977;SDS011;22056;0.000;0.000;2023-04-25T06:39:13;2.85;;;0.82;;
35977;SDS011;22056;0.000;0.000;2023-04-25T06:41:39;2.58;;;0.77;;
35977;SDS011;22056;0.000;0.000;2023-04-25T06:44:05;4.40;;;1.10;;
35977;SDS011;22056;0.000;0.000;2023-04-25T06:46:32;3.53;;;0.98;;
35977;SDS011;22056;0.000;0.000;2023-04-25T06:48:58;4.60;;;1.02;;
35977;SDS011;22056;0.000;0.000;2023-04-25T06:51:24;3.10;;;0.85;;
35977;SDS011;22056;0.000;0.000;2023-04-25T06:53:53;3.63;;;0.80;;
35977;SDS011;22056;0.000;0.000;2023-04-25T06:56:19;3.35;;;0.85;;
35977;SDS011;22056;0.000;0.000;2023-04-25T06:58:46;3.92;;;1.00;;
35977;SDS011;22056;0.000;0.000;2023-04-25T07:01:12;4.53;;;0.98;;
35977;SDS011;22056;0.000;0.000;2023-04-25T07:03:39;3.28;;;1.15;;
35977;SDS011;22056;0.000;0.000;2023-04-25T07:06:05;2.78;;;1.00;;
35977;SDS011;22056;0.000;0.000;2023-04-25T07:08:31;5.55;;;1.13;;
35977;SDS011;22056;0.000;0.000;2023-04-25T07:10:57;3.03;;;0.88;;
35977;SDS011;22056;0.000;0.000;2023-04-25T07:13:23;3.90;;;0.90;;
35977;SDS011;22056;0.000;0.000;2023-04-25T07:15:49;3.08;;;0.98;;
35977;SDS011;22056;0.000;0.000;2023-04-25T07:18:16;3.63;;;1.00;;
35977;SDS011;22056;0.000;0.000;2023-04-25T07:20:42;7.55;;;1.13;;
35977;SDS011;22056;0.000;0.000;2023-04-25T07:23:08;4.53;;;0.80;;
35977;SDS011;22056;0.000;0.000;2023-04-25T07:25:34;5.03;;;0.95;;
35977;SDS011;22056;0.000;0.000;2023-04-25T07:28:00;3.13;;;0.73;;
35977;SDS011;22056;0.000;0.000;2023-04-25T07:30:26;5.10;;;0.90;;
35977;SDS011;22056;0.000;0.000;2023-04-25T07:32:52;3.13;;;0.80;;
35977;SDS011;22056;0.000;0.000;2023-04-25T07:35:18;2.65;;;1.10;;
35977;SDS011;22056;0.000;0.000;2023-04-25T07:37:45;3.90;;;0.98;;
35977;SDS011;22056;0.000;0.000;2023-04-25T07:40:11;4.35;;;1.20;;
35977;SDS011;22056;0.000;0.000;2023-04-25T07:42:37;1.92;;;0.80;;
35977;SDS011;22056;0.000;0.000;2023-04-25T07:45:04;3.42;;;1.20;;
35977;SDS011;22056;0.000;0.000;2023-04-25T07:47:30;5.63;;;1.27;;
35977;SDS011;22056;0.000;0.000;2023-04-25T07:49:56;3.95;;;0.88;;
35977;SDS011;22056;0.000;0.000;2023-04-25T07:52:23;5.45;;;1.00;;
35977;SDS011;22056;0.000;0.000;2023-04-25T07:54:49;5.03;;;1.00;;
35977;SDS011;22056;0.000;0.000;2023-04-25T07:57:16;2.08;;;1.00;;
35977;SDS011;22056;0.000;0.000;2023-04-25T07:59:42;6.63;;;1.13;;
35977;SDS011;22056;0.000;0.000;2023-04-25T08:02:08;4.32;;;1.17;;
35977;SDS011;22056;0.000;0.000;2023-04-25T08:04:35;4.38;;;0.93;;
35977;SDS011;22056;0.000;0.000;2023-04-25T08:07:01;5.82;;;1.30;;
35977;SDS011;22056;0.000;0.000;2023-04-25T08:09:27;4.18;;;0.95;;
35977;SDS011;22056;0.000;0.000;2023-04-25T08:11:54;6.50;;;0.95;;
35977;SDS011;22056;0.000;0.000;2023-04-25T08:14:20;2.05;;;0.98;;
35977;SDS011;22056;0.000;0.000;2023-04-25T08:16:46;6.43;;;0.93;;
35977;SDS011;22056;0.000;0.000;2023-04-25T08:19:12;3.75;;;0.95;;
35977;SDS011;22056;0.000;0.000;2023-04-25T08:21:38;2.92;;;1.00;;
35977;SDS011;22056;0.000;0.000;2023-04-25T08:24:05;3.03;;;1.02;;
35977;SDS011;22056;0.000;0.000;2023-04-25T08:26:31;5.47;;;1.15;;
35977;SDS011;22056;0.000;0.000;2023-04-25T08:28:57;5.88;;;1.08;;
35977;SDS011;22056;0.000;0.000;2023-04-25T08:31:24;3.45;;;0.88;;
35977;SDS011;22056;0.000;0.000;2023-04-25T08:33:50;3.70;;;1.15;;
35977;SDS011;22056;0.000;0.000;2023-04-25T08:36:17;3.22;;;0.85;;
35977;SDS011;22056;0.000;0.000;2023-04-25T08:38:43;4.05;;;0.85;;
35977;SDS011;22056;0.000;0.000;2023-04-25T08:41:10;3.88;;;0.93;;
35977;SDS011;22056;0.000;0.000;2023-04-25T08:43:37;2.38;;;0.95;;
35977;SDS011;22056;0.000;0.000;2023-04-25T08:46:03;5.25;;;0.82;;
35977;SDS011;22056;0.000;0.000;2023-04-25T08:48:32;4.03;;;0.77;;
35977;SDS011;22056;0.000;0.000;2023-04-25T08:51:02;2.92;;;0.93;;
35977;SDS011;22056;0.000;0.000;2023-04-25T08:53:30;7.10;;;1.15;;
35977;SDS011;22056;0.000;0.000;2023-04-25T08:55:57;2.53;;;0.80;;
35977;SDS011;22056;0.000;0.000;2023-04-25T08:58:23;3.40;;;0.90;;
35977;SDS011;22056;0.000;0.000;2023-04-25T09:00:50;5.18;;;1.05;;
35977;SDS011;22056;0.000;0.000;2023-04-25T09:03:19;4.22;;;1.08;;
35977;SDS011;22056;0.000;0.000;2023-04-25T09:05:45;2.72;;;0.75;;
35977;SDS011;22056;0.000;0.000;2023-04-25T09:08:11;2.70;;;0.85;;
35977;SDS011;22056;0.000;0.000;2023-04-25T09:10:37;4.43;;;0.80;;
35977;SDS011;22056;0.000;0.000;2023-04-25T09:15:30;2.63;;;0.77;;
35977;SDS011;22056;0.000;0.000;2023-04-25T09:17:56;5.65;;;1.10;;
35977;SDS011;22056;0.000;0.000;2023-04-25T09:20:22;5.15;;;1.00;;
35977;SDS011;22056;0.000;0.000;2023-04-25T09:22:49;5.43;;;1.10;;
35977;SDS011;22056;0.000;0.000;2023-04-25T09:25:27;5.38;;;0.90;;
35977;SDS011;22056;0.000;0.000;2023-04-25T09:28:00;2.72;;;0.82;;
35977;SDS011;22056;0.000;0.000;2023-04-25T09:30:29;3.35;;;0.98;;
35977;SDS011;22056;0.000;0.000;2023-04-25T09:32:56;3.28;;;1.00;;
35977;SDS011;22056;0.000;0.000;2023-04-25T09:35:24;2.47;;;1.00;;
35977;SDS011;22056;0.000;0.000;2023-04-25T09:37:53;3.83;;;0.93;;
35977;SDS011;22056;0.000;0.000;2023-04-25T09:40:19;3.45;;;1.05;;
35977;SDS011;22056;0.000;0.000;2023-04-25T09:42:45;2.95;;;0.90;;
35977;SDS011;22056;0.000;0.000;2023-04-25T09:45:12;5.05;;;0.85;;
35977;SDS011;22056;0.000;0.000;2023-04-25T09:47:40;3.55;;;0.88;;
35977;SDS011;22056;0.000;0.000;2023-04-25T09:50:15;5.45;;;1.50;;
35977;SDS011;22056;0.000;0.000;2023-04-25T09:52:42;3.55;;;0.90;;
35977;SDS011;22056;0.000;0.000;2023-04-25T09:55:08;3.70;;;1.00;;
35977;SDS011;22056;0.000;0.000;2023-04-25T09:57:34;4.00;;;0.88;;
35977;SDS011;22056;0.000;0.000;2023-04-25T10:00:05;4.30;;;0.88;;
35977;SDS011;22056;0.000;0.000;2023-04-25T10:02:34;3.90;;;1.00;;
35977;SDS011;22056;0.000;0.000;2023-04-25T10:05:01;3.05;;;0.95;;
35977;SDS011;22056;0.000;0.000;2023-04-25T10:07:29;5.40;;;1.00;;
35977;SDS011;22056;0.000;0.000;2023-04-25T10:09:59;2.72;;;1.02;;
35977;SDS011;22056;0.000;0.000;2023-04-25T10:12:26;3.53;;;0.75;;
35977;SDS011;22056;0.000;0.000;2023-04-25T10:14:53;6.32;;;1.50;;
35977;SDS011;22056;0.000;0.000;2023-04-25T10:17:20;4.90;;;1.00;;
35977;SDS011;22056;0.000;0.000;2023-04-25T10:19:49;4.72;;;0.95;;
35977;SDS011;22056;0.000;0.000;2023-04-25T10:25:01;4.72;;;0.88;;
35977;SDS011;22056;0.000;0.000;2023-04-25T10:27:31;4.63;;;1.40;;
35977;SDS011;22056;0.000;0.000;2023-04-25T10:30:04;2.88;;;0.80;;
35977;SDS011;22056;0.000;0.000;2023-04-25T10:32:31;4.60;;;1.00;;
35977;SDS011;22056;0.000;0.000;2023-04-25T10:35:06;5.20;;;1.10;;
35977;SDS011;22056;0.000;0.000;2023-04-25T10:37:35;5.20;;;0.95;;
35977;SDS011;22056;0.000;0.000;2023-04-25T10:40:07;2.83;;;0.90;;
35977;SDS011;22056;0.000;0.000;2023-04-25T10:42:34;5.20;;;1.00;;
35977;SDS011;22056;0.000;0.000;2023-04-25T10:45:04;5.57;;;1.23;;
35977;SDS011;22056;0.000;0.000;2023-04-25T10:47:35;6.05;;;1.02;;
35977;SDS011;22056;0.000;0.000;2023-04-25T10:50:08;7.40;;;0.90;;
35977;SDS011;22056;0.000;0.000;2023-04-25T10:55:00;7.40;;;1.33;;
35977;SDS011;22056;0.000;0.000;2023-04-25T10:57:32;3.95;;;1.20;;
35977;SDS011;22056;0.000;0.000;2023-04-25T11:02:31;3.17;;;1.30;;
35977;SDS011;22056;0.000;0.000;2023-04-25T11:04:57;5.10;;;0.93;;
35977;SDS011;22056;0.000;0.000;2023-04-25T11:07:26;4.50;;;0.90;;
35977;SDS011;22056;0.000;0.000;2023-04-25T11:09:55;7.37;;;1.93;;
35977;SDS011;22056;0.000;0.000;2023-04-25T11:12:21;5.03;;;0.93;;
35977;SDS011;22056;0.000;0.000;2023-04-25T11:14:50;8.70;;;1.10;;
35977;SDS011;22056;0.000;0.000;2023-04-25T11:17:16;5.93;;;1.30;;
35977;SDS011;22056;0.000;0.000;2023-04-25T11:19:42;2.70;;;0.80;;
35977;SDS011;22056;0.000;0.000;2023-04-25T11:22:09;8.48;;;1.33;;
35977;SDS011;22056;0.000;0.000;2023-04-25T11:24:36;3.60;;;1.42;;
35977;SDS011;22056;0.000;0.000;2023-04-25T11:27:02;3.38;;;1.20;;
35977;SDS011;22056;0.000;0.000;2023-04-25T11:29:32;4.57;;;1.00;;
35977;SDS011;22056;0.000;0.000;2023-04-25T11:31:59;4.90;;;1.00;;
35977;SDS011;22056;0.000;0.000;2023-04-25T11:34:26;5.00;;;0.90;;
35977;SDS011;22056;0.000;0.000;2023-04-25T11:36:52;8.27;;;1.38;;
35977;SDS011;22056;0.000;0.000;2023-04-25T11:39:19;3.88;;;1.00;;
35977;SDS011;22056;0.000;0.000;2023-04-25T11:41:45;4.60;;;1.45;;
35977;SDS011;22056;0.000;0.000;2023-04-25T11:44:12;4.95;;;1.10;;
35977;SDS011;22056;0.000;0.000;2023-04-25T11:46:41;5.63;;;1.15;;
35977;SDS011;22056;0.000;0.000;2023-04-25T11:49:07;5.93;;;1.40;;
35977;SDS011;22056;0.000;0.000;2023-04-25T11:51:46;6.50;;;1.25;;
35977;SDS011;22056;0.000;0.000;2023-04-25T11:54:13;5.47;;;1.80;;
35977;SDS011;22056;0.000;0.000;2023-04-25T11:56:42;3.90;;;1.27;;
35977;SDS011;22056;0.000;0.000;2023-04-25T11:59:08;3.60;;;1.25;;
35977;SDS011;22056;0.000;0.000;2023-04-25T12:01:36;3.83;;;1.20;;
35977;SDS011;22056;0.000;0.000;2023-04-25T12:06:38;5.05;;;1.20;;
35977;SDS011;22056;0.000;0.000;2023-04-25T12:09:07;6.35;;;1.20;;
35977;SDS011;22056;0.000;0.000;2023-04-25T12:11:43;3.80;;;1.23;;
35977;SDS011;22056;0.000;0.000;2023-04-25T12:14:10;5.47;;;1.33;;
35977;SDS011;22056;0.000;0.000;2023-04-25T12:16:43;5.30;;;1.20;;
35977;SDS011;22056;0.000;0.000;2023-04-25T12:19:09;3.63;;;1.08;;
35977;SDS011;22056;0.000;0.000;2023-04-25T12:21:36;5.13;;;1.40;;
35977;SDS011;22056;0.000;0.000;2023-04-25T12:24:12;6.60;;;1.02;;
35977;SDS011;22056;0.000;0.000;2023-04-25T12:26:49;4.82;;;1.30;;
35977;SDS011;22056;0.000;0.000;2023-04-25T12:29:17;5.75;;;1.00;;
35977;SDS011;22056;0.000;0.000;2023-04-25T12:31:43;6.10;;;1.25;;
35977;SDS011;22056;0.000;0.000;2023-04-25T12:34:10;5.45;;;1.10;;
35977;SDS011;22056;0.000;0.000;2023-04-25T12:36:37;2.05;;;0.80;;
35977;SDS011;22056;0.000;0.000;2023-04-25T12:39:03;6.63;;;1.33;;
35977;SDS011;22056;0.000;0.000;2023-04-25T12:41:30;5.75;;;1.65;;
35977;SDS011;22056;0.000;0.000;2023-04-25T12:43:56;7.03;;;1.35;;
35977;SDS011;22056;0.000;0.000;2023-04-25T12:46:22;9.82;;;1.80;;
35977;SDS011;22056;0.000;0.000;2023-04-25T12:48:49;3.63;;;0.95;;
35977;SDS011;22056;0.000;0.000;2023-04-25T12:51:15;5.38;;;1.00;;
35977;SDS011;22056;0.000;0.000;2023-04-25T12:53:41;6.25;;;1.05;;
35977;SDS011;22056;0.000;0.000;2023-04-25T12:56:07;3.72;;;1.08;;
35977;SDS011;22056;0.000;0.000;2023-04-25T12:58:33;5.10;;;1.42;;
35977;SDS011;22056;0.000;0.000;2023-04-25T13:01:00;4.10;;;1.10;;
35977;SDS011;22056;0.000;0.000;2023-04-25T13:03:26;5.70;;;1.02;;
35977;SDS011;22056;0.000;0.000;2023-04-25T13:05:52;4.18;;;1.10;;
35977;SDS011;22056;0.000;0.000;2023-04-25T13:08:19;5.45;;;1.10;;
35977;SDS011;22056;0.000;0.000;2023-04-25T13:10:45;6.25;;;1.17;;
35977;SDS011;22056;0.000;0.000;2023-04-25T13:13:11;5.78;;;1.42;;
35977;SDS011;22056;0.000;0.000;2023-04-25T13:15:38;4.70;;;1.00;;
35977;SDS011;22056;0.000;0.000;2023-04-25T13:18:04;3.83;;;1.23;;
35977;SDS011;22056;0.000;0.000;2023-04-25T13:20:33;4.93;;;1.15;;
35977;SDS011;22056;0.000;0.000;2023-04-25T13:22:59;7.22;;;1.10;;
35977;SDS011;22056;0.000;0.000;2023-04-25T13:25:25;9.52;;;1.40;;
35977;SDS011;22056;0.000;0.000;2023-04-25T13:27:51;3.83;;;1.10;;
35977;SDS011;22056;0.000;0.000;2023-04-25T13:30:18;5.93;;;1.05;;
35977;SDS011;22056;0.000;0.000;2023-04-25T13:32:44;7.38;;;1.20;;
35977;SDS011;22056;0.000;0.000;2023-04-25T13:35:11;6.35;;;1.23;;
35977;SDS011;22056;0.000;0.000;2023-04-25T13:37:39;4.25;;;1.20;;
35977;SDS011;22056;0.000;0.000;2023-04-25T13:40:09;6.50;;;1.00;;
35977;SDS011;22056;0.000;0.000;2023-04-25T13:42:36;3.58;;;0.90;;
35977;SDS011;22056;0.000;0.000;2023-04-25T13:45:03;6.03;;;1.20;;
35977;SDS011;22056;0.000;0.000;2023-04-25T13:47:29;4.10;;;1.00;;
35977;SDS011;22056;0.000;0.000;2023-04-25T13:49:56;3.20;;;1.02;;
35977;SDS011;22056;0.000;0.000;2023-04-25T13:52:22;7.18;;;1.30;;
35977;SDS011;22056;0.000;0.000;2023-04-25T13:54:52;5.40;;;1.13;;
35977;SDS011;22056;0.000;0.000;2023-04-25T13:57:18;6.07;;;1.20;;
35977;SDS011;22056;0.000;0.000;2023-04-25T13:59:44;5.35;;;1.10;;
35977;SDS011;22056;0.000;0.000;2023-04-25T14:02:11;5.63;;;1.38;;
35977;SDS011;22056;0.000;0.000;2023-04-25T14:04:37;3.53;;;0.90;;
35977;SDS011;22056;0.000;0.000;2023-04-25T14:07:03;2.38;;;0.80;;
35977;SDS011;22056;0.000;0.000;2023-04-25T14:09:30;2.90;;;1.00;;
35977;SDS011;22056;0.000;0.000;2023-04-25T14:11:56;6.97;;;1.10;;
35977;SDS011;22056;0.000;0.000;2023-04-25T14:14:22;5.03;;;1.00;;
35977;SDS011;22056;0.000;0.000;2023-04-25T14:16:48;5.45;;;1.20;;
35977;SDS011;22056;0.000;0.000;2023-04-25T14:19:15;5.95;;;1.20;;
35977;SDS011;22056;0.000;0.000;2023-04-25T14:21:42;5.43;;;1.20;;
35977;SDS011;22056;0.000;0.000;2023-04-25T14:24:08;4.18;;;1.00;;
35977;SDS011;22056;0.000;0.000;2023-04-25T14:26:36;5.43;;;1.20;;
35977;SDS011;22056;0.000;0.000;2023-04-25T14:29:05;5.72;;;1.30;;
35977;SDS011;22056;0.000;0.000;2023-04-25T14:31:32;2.45;;;0.85;;
35977;SDS011;22056;0.000;0.000;2023-04-25T14:33:59;3.25;;;0.95;;
35977;SDS011;22056;0.000;0.000;2023-04-25T14:36:25;3.83;;;1.13;;
35977;SDS011;22056;0.000;0.000;2023-04-25T14:38:52;6.07;;;0.90;;
35977;SDS011;22056;0.000;0.000;2023-04-25T14:41:18;5.32;;;1.10;;
35977;SDS011;22056;0.000;0.000;2023-04-25T14:43:44;7.93;;;1.10;;
35977;SDS011;22056;0.000;0.000;2023-04-25T14:46:10;2.92;;;0.80;;
35977;SDS011;22056;0.000;0.000;2023-04-25T14:48:37;3.10;;;0.95;;
35977;SDS011;22056;0.000;0.000;2023-04-25T14:51:03;4.68;;;1.00;;
35977;SDS011;22056;0.000;0.000;2023-04-25T14:53:30;3.60;;;0.90;;
35977;SDS011;22056;0.000;0.000;2023-04-25T14:55:56;3.85;;;0.88;;
35977;SDS011;22056;0.000;0.000;2023-04-25T14:58:23;3.88;;;1.13;;
35977;SDS011;22056;0.000;0.000;2023-04-25T15:00:49;2.20;;;0.70;;
35977;SDS011;22056;0.000;0.000;2023-04-25T15:03:15;4.65;;;1.00;;
35977;SDS011;22056;0.000;0.000;2023-04-25T15:05:42;5.30;;;0.90;;
35977;SDS011;22056;0.000;0.000;2023-04-25T15:08:08;4.53;;;0.80;;
35977;SDS011;22056;0.000;0.000;2023-04-25T15:10:35;2.80;;;0.95;;